Backus, Minnesota
Current Conditions -  °F | °C
As of 12:14 AM on Thursday 29 Jan 2015 (Local Time) from KPWC Reporting Station
Overcast Overcast  
Wind Chill: 24°   Ceiling: 1700
Heat Index: 32°   Visibility: 10mi
Dew Point: 30°   Wind: 9mph
Humidity: 93%   Direction: 330°NNW
Pressure: 29.92"   Gusts: NA
Location:  46.82°N, 94.52°W
Report Text: KPWC 290614Z AUTO 33008KT 10SM SCT010 BKN017 OVC023 00/M01 A2992 RMK AO2
Loading
Personal Weather Stations






























Interactive Weather Map New forecast layout! Learn more

10-Day Weather Forecast

Advertisements
Track Severe Weather on mobile